createdAt,value
2019-03-30T00:01:04.709Z,91.27
2019-03-30T00:03:35.370Z,90.97
2019-03-30T00:06:06.149Z,90.97
2019-03-30T00:08:36.970Z,90.73
2019-03-30T00:11:07.826Z,90.98
2019-03-30T00:13:38.509Z,91.22
2019-03-30T00:16:09.272Z,91.38
2019-03-30T00:18:41.553Z,91.76
2019-03-30T00:21:12.465Z,92.14
2019-03-30T00:23:44.786Z,92.13
2019-03-30T00:26:15.572Z,92.19
2019-03-30T00:28:47.200Z,92.69
2019-03-30T00:31:18.865Z,92.49
2019-03-30T00:33:51.201Z,92.74
2019-03-30T00:36:22.047Z,93.19
2019-03-30T00:38:52.941Z,93.27
2019-03-30T00:41:23.770Z,93.17
2019-03-30T00:43:56.160Z,93.35
2019-03-30T00:46:27.363Z,93.20
2019-03-30T00:48:58.063Z,93.12
2019-03-30T00:51:28.835Z,93.50
2019-03-30T00:54:00.328Z,93.63
2019-03-30T00:56:31.099Z,93.67
2019-03-30T00:59:02.666Z,93.86
2019-03-30T01:01:33.502Z,94.24
2019-03-30T01:04:04.266Z,94.37
2019-03-30T01:06:35.930Z,94.43
2019-03-30T01:09:09.020Z,94.41
2019-03-30T01:11:39.866Z,94.53
2019-03-30T01:14:10.546Z,94.61
2019-03-30T01:16:41.365Z,94.47
2019-03-30T01:19:12.102Z,94.85
2019-03-30T01:21:42.866Z,95.38
2019-03-30T01:24:13.631Z,95.45
2019-03-30T01:26:44.329Z,95.31
2019-03-30T01:29:16.294Z,95.42
2019-03-30T01:31:47.226Z,94.97
2019-03-30T01:34:19.024Z,94.97
2019-03-30T01:36:49.729Z,95.06
2019-03-30T01:39:20.687Z,94.99
2019-03-30T01:41:51.386Z,94.71
2019-03-30T01:44:22.106Z,94.65
2019-03-30T01:46:52.800Z,94.57
2019-03-30T01:49:24.312Z,94.61
2019-03-30T01:51:55.048Z,94.85
2019-03-30T01:54:25.879Z,94.83
2019-03-30T01:56:56.644Z,94.88
2019-03-30T01:59:27.422Z,94.64
2019-03-30T02:01:59.050Z,94.63
2019-03-30T02:04:29.888Z,94.78
2019-03-30T02:07:00.681Z,94.88
2019-03-30T02:09:31.452Z,94.94
2019-03-30T02:12:02.367Z,94.79
2019-03-30T02:14:33.120Z,95.32
2019-03-30T02:17:03.876Z,95.81
2019-03-30T02:19:34.660Z,95.86
2019-03-30T02:22:06.981Z,95.73
2019-03-30T02:24:37.770Z,95.56
2019-03-30T02:27:08.529Z,95.70
2019-03-30T02:29:39.203Z,95.90
2019-03-30T02:32:10.131Z,95.57
2019-03-30T02:34:40.908Z,95.19
2019-03-30T02:37:13.305Z,95.37
2019-03-30T02:39:45.593Z,95.61
2019-03-30T02:42:16.396Z,95.58
2019-03-30T02:44:47.113Z,96.16
2019-03-30T02:47:17.794Z,96.74
2019-03-30T02:49:48.578Z,96.52
2019-03-30T02:52:19.299Z,97.03
2019-03-30T02:54:50.029Z,96.89
2019-03-30T02:57:21.544Z,96.98
2019-03-30T02:59:52.241Z,98.36
2019-03-30T03:02:47.727Z,100.00
2019-03-30T03:05:45.037Z,100.00
2019-03-30T03:08:42.234Z,100.00
2019-03-30T03:11:40.504Z,100.00
2019-03-30T03:14:36.542Z,100.00
2019-03-30T03:17:33.679Z,100.00
2019-03-30T03:20:29.703Z,99.84
2019-03-30T03:23:26.257Z,99.81
2019-03-30T03:26:22.473Z,99.49
2019-03-30T03:29:18.823Z,99.20
2019-03-30T03:32:15.469Z,99.08
2019-03-30T03:35:12.423Z,99.10
2019-03-30T03:38:10.411Z,99.06
2019-03-30T03:41:06.748Z,99.06
2019-03-30T03:44:04.840Z,98.64
2019-03-30T03:47:00.891Z,98.08
2019-03-30T03:49:58.150Z,98.21
2019-03-30T03:52:53.424Z,98.13
2019-03-30T03:55:50.029Z,98.54
2019-03-30T03:58:45.674Z,99.47
2019-03-30T04:01:42.626Z,99.46
2019-03-30T04:04:40.965Z,99.44
2019-03-30T04:07:38.109Z,99.70
2019-03-30T04:10:35.231Z,99.80
2019-03-30T04:13:31.254Z,99.87
2019-03-30T04:16:29.028Z,99.67
2019-03-30T04:19:25.177Z,99.35
2019-03-30T04:22:21.643Z,99.65
2019-03-30T04:25:20.401Z,99.71
2019-03-30T04:28:16.486Z,99.76
2019-03-30T04:31:14.354Z,99.46
2019-03-30T04:34:11.406Z,99.12
2019-03-30T04:37:09.629Z,99.12
2019-03-30T04:40:06.895Z,99.98
2019-03-30T04:43:04.051Z,100.00
2019-03-30T04:46:02.107Z,99.96
2019-03-30T04:48:58.439Z,99.71
2019-03-30T04:51:57.700Z,99.44
2019-03-30T04:54:59.656Z,99.84
2019-03-30T04:57:57.714Z,99.79
2019-03-30T05:00:54.157Z,99.88
2019-03-30T05:03:51.052Z,100.00
2019-03-30T05:06:49.180Z,100.00
2019-03-30T05:09:45.077Z,100.00
2019-03-30T05:12:42.504Z,100.00
2019-03-30T05:15:39.129Z,100.00
2019-03-30T05:18:36.309Z,100.00
2019-03-30T05:21:32.436Z,100.00
2019-03-30T05:24:30.766Z,100.00
2019-03-30T05:27:27.861Z,100.00
2019-03-30T05:30:24.931Z,100.00
2019-03-30T05:33:22.370Z,100.00
2019-03-30T05:36:19.428Z,100.00
2019-03-30T05:39:17.751Z,100.00
2019-03-30T05:42:16.002Z,100.00
2019-03-30T05:45:15.419Z,100.00
2019-03-30T05:48:12.534Z,100.00
2019-03-30T05:51:08.830Z,100.00
2019-03-30T05:54:05.016Z,100.00
2019-03-30T05:57:03.201Z,100.00
2019-03-30T06:00:00.299Z,100.00
2019-03-30T06:02:57.577Z,100.00
2019-03-30T06:05:56.544Z,100.00
2019-03-30T06:08:53.638Z,100.00
2019-03-30T06:11:49.528Z,100.00
2019-03-30T06:14:46.567Z,100.00
2019-03-30T06:17:42.641Z,100.00
2019-03-30T06:20:39.754Z,100.00
2019-03-30T06:23:35.622Z,100.00
2019-03-30T06:26:33.739Z,100.00
2019-03-30T06:29:30.639Z,100.00
2019-03-30T06:32:26.257Z,100.00
2019-03-30T06:35:24.445Z,100.00
2019-03-30T06:38:20.721Z,100.00
2019-03-30T06:41:18.213Z,100.00
2019-03-30T06:44:15.290Z,100.00
2019-03-30T06:47:12.354Z,100.00
2019-03-30T06:50:09.507Z,100.00
2019-03-30T06:53:05.470Z,100.00
2019-03-30T06:56:02.646Z,100.00
2019-03-30T06:58:59.308Z,100.00
2019-03-30T07:01:56.414Z,100.00
2019-03-30T07:04:52.572Z,100.00
2019-03-30T07:07:51.880Z,100.00
2019-03-30T07:10:47.915Z,100.00
2019-03-30T07:13:45.276Z,100.00
2019-03-30T07:16:42.504Z,100.00
2019-03-30T07:19:39.896Z,100.00
2019-03-30T07:22:37.009Z,100.00
2019-03-30T07:25:32.417Z,100.00
2019-03-30T07:28:29.983Z,100.00
2019-03-30T07:31:26.134Z,100.00
2019-03-30T07:34:23.258Z,100.00
2019-03-30T07:37:21.691Z,100.00
2019-03-30T07:40:17.921Z,100.00
2019-03-30T07:43:16.268Z,100.00
2019-03-30T07:46:13.366Z,100.00
2019-03-30T07:49:10.510Z,100.00
2019-03-30T07:52:05.718Z,100.00
2019-03-30T07:55:03.078Z,100.00
2019-03-30T07:57:59.940Z,100.00
2019-03-30T08:00:56.765Z,100.00
2019-03-30T08:03:54.822Z,100.00
2019-03-30T08:06:52.327Z,100.00
2019-03-30T08:09:50.531Z,99.53
2019-03-30T08:12:46.845Z,97.93
2019-03-30T08:15:44.111Z,97.61
2019-03-30T08:18:41.363Z,97.63
2019-03-30T08:21:38.934Z,96.63
2019-03-30T08:24:34.820Z,96.27
2019-03-30T08:27:32.599Z,95.69
2019-03-30T08:30:30.124Z,95.54
2019-03-30T08:33:26.418Z,94.85
2019-03-30T08:36:23.567Z,93.96
2019-03-30T08:39:19.912Z,93.38
2019-03-30T08:42:17.455Z,92.53
2019-03-30T08:45:14.679Z,91.42
2019-03-30T08:48:13.677Z,90.11
2019-03-30T08:51:13.653Z,90.60
2019-03-30T08:54:19.335Z,90.13
2019-03-30T08:57:17.698Z,89.73
2019-03-30T09:00:13.957Z,88.84
2019-03-30T09:03:11.415Z,89.80
2019-03-30T09:06:08.904Z,88.84
2019-03-30T09:09:07.085Z,87.96
2019-03-30T09:12:03.697Z,86.54
2019-03-30T09:15:02.385Z,85.61
2019-03-30T09:18:00.130Z,83.91
2019-03-30T09:20:57.423Z,84.15
2019-03-30T09:24:08.427Z,82.83
2019-03-30T09:26:51.007Z,82.73
2019-03-30T09:29:48.403Z,81.55
2019-03-30T09:32:45.321Z,81.87
2019-03-30T09:35:42.141Z,80.06
2019-03-30T09:38:39.787Z,81.03
2019-03-30T09:41:35.854Z,79.56
2019-03-30T09:44:33.117Z,79.41
2019-03-30T09:47:31.601Z,78.18
2019-03-30T09:50:28.841Z,79.45
2019-03-30T09:53:25.492Z,81.15
2019-03-30T09:56:24.110Z,81.15
2019-03-30T09:59:21.447Z,79.72
2019-03-30T10:02:18.755Z,77.69
2019-03-30T10:05:14.405Z,77.34
2019-03-30T10:08:12.679Z,75.16
2019-03-30T10:11:12.659Z,74.54
2019-03-30T10:14:11.069Z,74.56
2019-03-30T10:17:07.743Z,73.50
2019-03-30T10:20:06.109Z,72.35
2019-03-30T10:23:03.747Z,70.88
2019-03-30T10:26:03.392Z,70.98
2019-03-30T10:29:01.772Z,71.03
2019-03-30T10:31:59.891Z,70.38
2019-03-30T10:34:58.724Z,70.89
2019-03-30T10:37:54.838Z,68.13
2019-03-30T10:40:53.382Z,67.83
2019-03-30T10:43:49.472Z,66.92
2019-03-30T10:46:47.072Z,67.19
2019-03-30T10:49:49.664Z,65.28
2019-03-30T10:52:49.244Z,66.17
2019-03-30T10:55:47.005Z,65.68
2019-03-30T10:58:45.093Z,63.75
2019-03-30T11:01:42.122Z,61.16
2019-03-30T11:04:40.452Z,61.21
2019-03-30T11:07:38.307Z,61.28
2019-03-30T11:10:37.284Z,59.84
2019-03-30T11:13:34.724Z,59.13
2019-03-30T11:16:31.845Z,59.25
2019-03-30T11:19:30.938Z,58.04
2019-03-30T11:22:27.832Z,57.18
2019-03-30T11:25:26.655Z,59.33
2019-03-30T11:28:23.659Z,58.92
2019-03-30T11:31:21.630Z,59.34
2019-03-30T11:34:19.606Z,58.06
2019-03-30T11:37:16.399Z,59.26
2019-03-30T11:40:14.943Z,59.65
2019-03-30T11:43:12.032Z,58.49
2019-03-30T11:46:09.237Z,55.70
2019-03-30T11:49:06.953Z,57.66
2019-03-30T11:52:05.508Z,58.12
2019-03-30T11:55:02.245Z,58.83
2019-03-30T11:58:00.113Z,58.26
2019-03-30T12:00:57.956Z,60.10
2019-03-30T12:03:55.855Z,57.59
2019-03-30T12:06:54.808Z,55.42
2019-03-30T12:09:51.367Z,56.28
2019-03-30T12:12:49.658Z,53.92
2019-03-30T12:15:46.699Z,55.87
2019-03-30T12:18:44.603Z,55.55
2019-03-30T12:21:42.138Z,56.86
2019-03-30T12:24:41.075Z,54.61
2019-03-30T12:27:38.204Z,54.62
2019-03-30T12:30:37.021Z,55.06
2019-03-30T12:33:35.166Z,55.65
2019-03-30T12:36:33.033Z,54.75
2019-03-30T12:39:30.187Z,51.28
2019-03-30T12:42:28.455Z,50.96
2019-03-30T12:45:35.267Z,50.57
2019-03-30T12:48:30.050Z,50.28
2019-03-30T12:51:28.816Z,52.45
2019-03-30T12:54:27.947Z,53.07
2019-03-30T12:57:28.510Z,52.30
2019-03-30T13:00:26.145Z,50.95
2019-03-30T13:03:27.528Z,52.84
2019-03-30T13:06:26.216Z,53.25
2019-03-30T13:09:24.152Z,53.70
2019-03-30T13:12:21.835Z,52.02
2019-03-30T13:15:19.715Z,50.88
2019-03-30T13:18:29.732Z,50.29
2019-03-30T13:21:27.795Z,49.15
2019-03-30T13:24:26.748Z,48.43
2019-03-30T13:27:23.883Z,49.20
2019-03-30T13:30:21.032Z,50.28
2019-03-30T13:33:17.250Z,49.93
2019-03-30T13:36:16.116Z,51.55
2019-03-30T13:39:12.571Z,51.40
2019-03-30T13:42:11.169Z,50.02
2019-03-30T13:45:09.671Z,49.87
2019-03-30T13:48:06.717Z,47.42
2019-03-30T13:51:04.840Z,48.92
2019-03-30T13:54:03.059Z,50.21
2019-03-30T13:57:01.061Z,46.60
2019-03-30T13:59:58.875Z,48.21
2019-03-30T14:02:56.949Z,49.31
2019-03-30T14:05:54.365Z,48.89
2019-03-30T14:08:52.137Z,47.96
2019-03-30T14:11:52.333Z,49.48
2019-03-30T14:14:51.645Z,46.40
2019-03-30T14:17:49.821Z,49.28
2019-03-30T14:20:47.781Z,46.73
2019-03-30T14:23:46.051Z,47.18
2019-03-30T14:26:44.271Z,45.01
2019-03-30T14:29:41.099Z,45.64
2019-03-30T14:32:40.250Z,45.13
2019-03-30T14:35:37.238Z,46.69
2019-03-30T14:38:35.142Z,46.74
2019-03-30T14:41:33.285Z,45.50
2019-03-30T14:44:30.500Z,42.16
2019-03-30T14:47:34.168Z,44.64
2019-03-30T14:50:33.039Z,40.23
2019-03-30T14:53:33.478Z,42.31
2019-03-30T14:56:45.472Z,40.14
2019-03-30T14:59:34.187Z,40.67
2019-03-30T15:02:32.146Z,41.52
2019-03-30T15:05:29.350Z,38.16
2019-03-30T15:08:30.285Z,37.96
2019-03-30T15:11:27.697Z,38.98
2019-03-30T15:14:27.063Z,38.54
2019-03-30T15:17:24.991Z,39.51
2019-03-30T15:20:22.101Z,38.05
2019-03-30T15:23:21.247Z,39.65
2019-03-30T15:26:18.032Z,39.10
2019-03-30T15:29:15.996Z,37.02
2019-03-30T15:32:12.944Z,36.88
2019-03-30T15:35:10.932Z,38.32
2019-03-30T15:38:09.099Z,39.74
2019-03-30T15:41:07.249Z,38.63
2019-03-30T15:44:06.522Z,38.37
2019-03-30T15:47:05.159Z,36.94
2019-03-30T15:50:03.409Z,38.88
2019-03-30T15:53:01.185Z,41.41
2019-03-30T15:55:58.341Z,40.99
2019-03-30T15:59:01.801Z,41.14
2019-03-30T16:01:59.767Z,42.01
2019-03-30T16:05:02.494Z,41.69
2019-03-30T16:08:00.397Z,43.38
2019-03-30T16:10:58.456Z,42.75
2019-03-30T16:13:57.140Z,44.39
2019-03-30T16:16:54.864Z,44.79
2019-03-30T16:19:51.763Z,45.17
2019-03-30T16:22:50.783Z,42.78
2019-03-30T16:25:48.748Z,46.22
2019-03-30T16:28:46.779Z,45.59
2019-03-30T16:31:44.176Z,45.79
2019-03-30T16:37:05.982Z,46.12
2019-03-30T16:39:36.582Z,46.28
2019-03-30T16:42:07.771Z,47.16
2019-03-30T16:44:38.427Z,47.11
2019-03-30T16:47:09.030Z,47.11
2019-03-30T16:49:39.678Z,46.94
2019-03-30T16:52:10.272Z,46.89
2019-03-30T16:54:40.898Z,46.50
2019-03-30T16:57:11.524Z,46.42
2019-03-30T16:59:42.281Z,45.90
2019-03-30T17:02:12.854Z,46.23
2019-03-30T17:04:43.434Z,46.85
2019-03-30T17:07:13.985Z,47.00
2019-03-30T17:09:44.640Z,47.87
2019-03-30T17:12:15.253Z,47.55
2019-03-30T17:14:45.914Z,46.56
2019-03-30T17:17:16.601Z,47.30
2019-03-30T17:19:47.252Z,47.53
2019-03-30T17:22:17.854Z,47.92
2019-03-30T17:24:48.508Z,48.18
2019-03-30T17:27:19.129Z,48.18
2019-03-30T17:29:49.706Z,48.54
2019-03-30T17:32:20.358Z,48.94
2019-03-30T17:34:51.006Z,49.03
2019-03-30T17:37:21.641Z,48.82
2019-03-30T17:39:52.298Z,49.24
2019-03-30T17:42:22.936Z,49.59
2019-03-30T17:44:53.594Z,49.89
2019-03-30T17:47:24.188Z,50.28
2019-03-30T17:49:54.831Z,50.49
2019-03-30T17:52:25.505Z,50.63
2019-03-30T17:54:56.884Z,51.18
2019-03-30T17:57:27.520Z,51.80
2019-03-30T17:59:58.205Z,52.37
2019-03-30T18:02:29.027Z,52.71
2019-03-30T18:04:59.628Z,53.02
2019-03-30T18:07:30.224Z,53.25
2019-03-30T18:10:03.517Z,53.44
2019-03-30T18:12:33.150Z,54.06
2019-03-30T18:15:03.774Z,54.79
2019-03-30T18:17:34.369Z,55.86
2019-03-30T18:20:05.102Z,57.17
2019-03-30T18:22:35.846Z,58.05
2019-03-30T18:25:06.695Z,58.39
2019-03-30T18:27:37.323Z,58.73
2019-03-30T18:30:08.793Z,59.43
2019-03-30T18:32:40.041Z,59.90
2019-03-30T18:35:10.797Z,60.34
2019-03-30T18:37:41.572Z,60.75
2019-03-30T18:40:16.913Z,61.13
2019-03-30T18:42:47.580Z,61.71
2019-03-30T18:45:27.229Z,62.04
2019-03-30T18:48:13.707Z,62.20
2019-03-30T18:50:44.916Z,62.25
2019-03-30T18:53:16.695Z,63.28
2019-03-30T18:55:47.459Z,63.65
2019-03-30T18:58:18.072Z,64.10
2019-03-30T19:00:48.654Z,64.70
2019-03-30T19:03:20.257Z,64.99
2019-03-30T19:05:51.184Z,65.73
2019-03-30T19:08:21.819Z,66.15
2019-03-30T19:10:52.550Z,66.55
2019-03-30T19:13:23.168Z,66.67
2019-03-30T19:15:53.793Z,66.86
2019-03-30T19:18:24.444Z,67.03
2019-03-30T19:20:55.064Z,67.34
2019-03-30T19:23:25.801Z,67.63
2019-03-30T19:25:56.493Z,67.82
2019-03-30T19:28:27.317Z,68.00
2019-03-30T19:30:57.942Z,68.39
2019-03-30T19:33:28.636Z,68.79
2019-03-30T19:36:00.991Z,69.16
2019-03-30T19:38:31.655Z,69.59
2019-03-30T19:41:02.277Z,70.05
2019-03-30T19:43:32.897Z,70.31
2019-03-30T19:46:03.587Z,70.49
2019-03-30T19:48:36.934Z,71.04
2019-03-30T19:51:06.990Z,71.48
2019-03-30T19:53:37.740Z,72.03
2019-03-30T19:56:08.356Z,72.30
2019-03-30T19:58:39.034Z,72.59
2019-03-30T20:01:09.667Z,73.33
2019-03-30T20:03:41.311Z,73.91
2019-03-30T20:06:12.037Z,74.46
2019-03-30T20:08:42.636Z,74.80
2019-03-30T20:11:13.305Z,75.05
2019-03-30T20:13:43.962Z,75.53
2019-03-30T20:16:14.661Z,76.14
2019-03-30T20:18:45.317Z,76.20
2019-03-30T20:21:16.022Z,76.32
2019-03-30T20:23:46.657Z,76.42
2019-03-30T20:26:17.379Z,76.77
2019-03-30T20:28:48.069Z,77.32
2019-03-30T20:31:18.680Z,77.46
2019-03-30T20:33:49.273Z,77.63
2019-03-30T20:36:20.056Z,77.94
2019-03-30T20:38:50.685Z,78.09
2019-03-30T20:41:21.389Z,78.29
2019-03-30T20:43:52.097Z,78.41
2019-03-30T20:46:22.734Z,78.68
2019-03-30T20:48:54.581Z,78.96
2019-03-30T20:51:25.214Z,79.30
2019-03-30T20:53:55.827Z,79.52
2019-03-30T20:56:26.531Z,79.55
2019-03-30T20:58:57.256Z,79.67
2019-03-30T21:01:27.843Z,79.98
2019-03-30T21:03:58.443Z,80.26
2019-03-30T21:06:29.037Z,81.20
2019-03-30T21:08:59.752Z,81.99
2019-03-30T21:11:30.385Z,82.44
2019-03-30T21:14:01.029Z,82.23
2019-03-30T21:16:31.687Z,82.07
2019-03-30T21:19:02.325Z,81.99
2019-03-30T21:21:33.103Z,81.94
2019-03-30T21:24:03.770Z,81.89
2019-03-30T21:26:34.399Z,81.87
2019-03-30T21:29:05.100Z,82.07
2019-03-30T21:31:35.675Z,82.31
2019-03-30T21:34:06.359Z,82.44
2019-03-30T21:36:36.994Z,82.54
2019-03-30T21:39:09.196Z,82.81
2019-03-30T21:41:39.780Z,83.03
2019-03-30T21:44:21.359Z,83.51
2019-03-30T21:46:42.752Z,83.81
2019-03-30T21:49:13.358Z,84.52
2019-03-30T21:51:44.016Z,84.83
2019-03-30T21:54:14.563Z,85.07
2019-03-30T21:56:45.219Z,84.83
2019-03-30T21:59:15.828Z,85.05
2019-03-30T22:01:46.571Z,85.29
2019-03-30T22:04:17.188Z,85.76
2019-03-30T22:06:47.818Z,85.45
2019-03-30T22:09:18.559Z,85.69
2019-03-30T22:11:49.187Z,85.54
2019-03-30T22:14:19.849Z,85.40
2019-03-30T22:16:50.526Z,85.55
2019-03-30T22:19:21.123Z,85.47
2019-03-30T22:21:51.840Z,85.57
2019-03-30T22:24:23.253Z,86.38
2019-03-30T22:26:53.907Z,86.34
2019-03-30T22:29:24.546Z,86.65
2019-03-30T22:31:55.246Z,86.76
2019-03-30T22:34:25.844Z,86.73
2019-03-30T22:36:56.449Z,87.59
2019-03-30T22:39:27.058Z,87.92
2019-03-30T22:41:57.679Z,88.17
2019-03-30T22:44:28.316Z,88.85
2019-03-30T22:46:58.972Z,89.61
2019-03-30T22:49:29.643Z,89.91
2019-03-30T22:52:00.281Z,90.08
2019-03-30T22:54:30.856Z,89.85
2019-03-30T22:57:01.447Z,89.40
2019-03-30T22:59:32.012Z,89.07
2019-03-30T23:02:02.660Z,88.85
2019-03-30T23:04:33.262Z,89.31
2019-03-30T23:07:03.920Z,89.61
2019-03-30T23:09:34.528Z,89.55
2019-03-30T23:12:05.172Z,89.36
2019-03-30T23:14:35.781Z,89.70
2019-03-30T23:17:06.426Z,89.62
2019-03-30T23:19:37.077Z,89.45
2019-03-30T23:22:07.743Z,89.58
2019-03-30T23:24:38.377Z,90.25
2019-03-30T23:27:08.977Z,90.37
2019-03-30T23:29:39.662Z,90.62
2019-03-30T23:32:10.267Z,90.49
2019-03-30T23:34:40.928Z,90.62
2019-03-30T23:37:11.507Z,90.81
2019-03-30T23:39:42.108Z,91.12
2019-03-30T23:42:12.692Z,91.05
2019-03-30T23:44:43.269Z,90.79
2019-03-30T23:47:13.848Z,90.74
2019-03-30T23:49:44.451Z,90.86
2019-03-30T23:52:15.344Z,91.05
2019-03-30T23:54:45.989Z,91.08
2019-03-30T23:57:18.477Z,90.96
2019-03-30T23:59:49.095Z,91.07
